Time;durP1;ratioP1;P1;durP2;ratioP2;P2;SDS_P1;SDS_P2;PMS_P1;PMS_P2;Temp;Humidity;BMP_temperature;BMP_pressure;BME280_temperature;BME280_humidity;BME280_pressure;Samples;Min_cycle;Max_cycle;Signal;HPM_P1;HPM_P2
2022/03/13 00:02:07;;;;;;;;;;;7.50;99.90;;;;;;4946979;28;20426;-73
2022/03/13 00:04:34;;;;;;;;;;;7.50;99.90;;;;;;4952176;28;19933;-73
2022/03/13 00:07:01;;;;;;;;;;;7.50;99.90;;;;;;4931232;28;19928;-73
2022/03/13 00:09:26;;;;;;;;;;;7.50;99.90;;;;;;4933718;28;19968;-73
2022/03/13 00:11:53;;;;;;;;;;;7.50;99.90;;;;;;4934558;28;19935;-73
2022/03/13 00:14:21;;;;;;;;;;;7.50;99.90;;;;;;4909354;28;20341;-73
2022/03/13 00:16:48;;;;;;;;;;;7.50;99.90;;;;;;4941486;28;19934;-73
2022/03/13 00:19:16;;;;;;;;;;;7.40;99.90;;;;;;4961202;28;20047;-74
2022/03/13 00:21:45;;;;;;;;;;;7.40;99.90;;;;;;4943538;28;20040;-73
2022/03/13 00:24:10;;;;;;;;;;;7.50;99.90;;;;;;4941738;28;19928;-73
2022/03/13 00:26:36;;;;;;;;;;;7.40;99.90;;;;;;4924195;28;19972;-73
2022/03/13 00:29:02;;;;;;;;;;;7.30;99.90;;;;;;4937642;28;19928;-73
2022/03/13 00:31:28;;;;;;;;;;;7.30;99.90;;;;;;4957521;28;20435;-73
2022/03/13 00:33:53;;;;;;;;;;;7.30;99.90;;;;;;4954534;28;20334;-73
2022/03/13 00:36:20;;;;;;;;;;;7.40;99.90;;;;;;4938321;28;20696;-73
2022/03/13 00:38:46;;;;;;;;;;;7.40;99.90;;;;;;4939355;28;19929;-73
2022/03/13 00:41:11;;;;;;;;;;;7.20;99.90;;;;;;4941064;28;20260;-73
2022/03/13 00:43:37;;;;;;;;;;;7.20;99.90;;;;;;4944657;28;19982;-73
2022/03/13 00:46:03;;;;;;;;;;;7.30;99.90;;;;;;4957884;28;19929;-73
2022/03/13 00:48:29;;;;;;;;;;;7.30;99.90;;;;;;4948870;28;19932;-73
2022/03/13 00:50:55;;;;;;;;;;;7.30;99.90;;;;;;4975300;28;20007;-73
2022/03/13 00:53:20;;;;;;;;;;;7.30;99.90;;;;;;4965237;28;19929;-73
2022/03/13 00:55:46;;;;;;;;;;;7.30;99.90;;;;;;4958919;28;20315;-74
2022/03/13 00:58:12;;;;;;;;;;;7.30;99.90;;;;;;4955211;28;19948;-73
2022/03/13 01:00:38;;;;;;;;;;;7.30;99.90;;;;;;4941096;28;19932;-73
2022/03/13 01:03:03;;;;;;;;;;;7.40;99.90;;;;;;4935946;28;20387;-73
2022/03/13 01:05:29;;;;;;;;;;;7.30;99.90;;;;;;4939776;28;19929;-73
2022/03/13 01:07:55;;;;;;;;;;;7.30;99.90;;;;;;4945566;28;20451;-73
2022/03/13 01:10:21;;;;;;;;;;;7.30;99.90;;;;;;4939337;28;19929;-73
2022/03/13 01:12:48;;;;;;;;;;;7.30;99.90;;;;;;4942376;28;20390;-74
2022/03/13 01:15:14;;;;;;;;;;;7.30;99.90;;;;;;4934348;28;20314;-73
2022/03/13 01:17:40;;;;;;;;;;;7.30;99.90;;;;;;4943013;28;19936;-73
2022/03/13 01:20:13;;;;;;;;;;;7.20;99.90;;;;;;4921247;28;20297;-73
2022/03/13 01:22:38;;;;;;;;;;;7.20;99.90;;;;;;4957127;28;19932;-74
2022/03/13 01:25:04;;;;;;;;;;;7.30;99.90;;;;;;4951330;28;19929;-73
2022/03/13 01:27:31;;;;;;;;;;;7.30;99.90;;;;;;4940856;28;19929;-73
2022/03/13 01:29:58;;;;;;;;;;;7.30;99.90;;;;;;4948631;28;19928;-73
2022/03/13 01:32:23;;;;;;;;;;;7.30;99.90;;;;;;4956129;28;19995;-73
2022/03/13 01:34:54;;;;;;;;;;;7.20;99.90;;;;;;4953132;28;20016;-73
2022/03/13 01:37:27;;;;;;;;;;;7.20;99.90;;;;;;4935476;28;19994;-73
2022/03/13 01:39:52;;;;;;;;;;;7.20;99.90;;;;;;4952520;28;19929;-73
2022/03/13 01:42:18;;;;;;;;;;;7.10;99.90;;;;;;4905024;28;19979;-73
2022/03/13 01:44:44;;;;;;;;;;;7.00;99.90;;;;;;4929657;28;20481;-73
2022/03/13 01:47:09;;;;;;;;;;;7.10;99.90;;;;;;4932502;28;19928;-73
2022/03/13 01:49:35;;;;;;;;;;;7.00;99.90;;;;;;4933948;28;20381;-73
2022/03/13 01:52:01;;;;;;;;;;;7.00;99.90;;;;;;4935417;28;20465;-73
2022/03/13 01:54:27;;;;;;;;;;;7.00;99.90;;;;;;4945559;28;20739;-73
2022/03/13 01:56:53;;;;;;;;;;;7.10;99.90;;;;;;4940324;28;20919;-73
2022/03/13 01:59:20;;;;;;;;;;;7.00;99.90;;;;;;4924195;28;19933;-73
2022/03/13 02:01:46;;;;;;;;;;;6.90;99.90;;;;;;4942049;28;19936;-73
2022/03/13 02:04:12;;;;;;;;;;;6.90;99.90;;;;;;4930710;28;20580;-73
2022/03/13 02:06:39;;;;;;;;;;;6.90;99.90;;;;;;4931576;28;20095;-73
2022/03/13 02:09:07;;;;;;;;;;;6.90;99.90;;;;;;4936564;28;19929;-73
2022/03/13 02:11:38;;;;;;;;;;;6.90;99.90;;;;;;4954863;28;20019;-73
2022/03/13 02:14:05;;;;;;;;;;;6.90;99.90;;;;;;4956498;28;20013;-73
2022/03/13 02:16:30;;;;;;;;;;;6.90;99.90;;;;;;4933559;28;19925;-73
2022/03/13 02:18:56;;;;;;;;;;;6.90;99.90;;;;;;4958300;28;19936;-73
2022/03/13 02:21:24;;;;;;;;;;;6.80;99.90;;;;;;4936189;28;19960;-73
2022/03/13 02:23:49;;;;;;;;;;;6.80;99.90;;;;;;4933537;28;19935;-73
2022/03/13 02:26:15;;;;;;;;;;;6.80;99.90;;;;;;4919350;28;20847;-73
2022/03/13 02:28:50;;;;;;;;;;;6.80;99.90;;;;;;4931011;28;19948;-73
2022/03/13 02:31:17;;;;;;;;;;;6.70;99.90;;;;;;4930814;28;20734;-73
2022/03/13 02:33:43;;;;;;;;;;;6.80;99.90;;;;;;4925478;28;19967;-73
2022/03/13 02:36:21;;;;;;;;;;;6.80;99.90;;;;;;4933360;28;19960;-73
2022/03/13 02:38:47;;;;;;;;;;;6.70;99.90;;;;;;4947702;28;20118;-73
2022/03/13 02:41:13;;;;;;;;;;;6.70;99.90;;;;;;4948706;28;20087;-73
2022/03/13 02:43:38;;;;;;;;;;;6.70;99.90;;;;;;4932002;28;19928;-73
2022/03/13 02:46:14;;;;;;;;;;;6.60;99.90;;;;;;4930436;28;19929;-73
2022/03/13 02:48:40;;;;;;;;;;;6.60;99.90;;;;;;4950738;28;19936;-73
2022/03/13 02:51:05;;;;;;;;;;;6.50;99.90;;;;;;4931753;28;20399;-73
2022/03/13 02:53:31;;;;;;;;;;;6.50;99.90;;;;;;4928373;28;19928;-73
2022/03/13 02:55:56;;;;;;;;;;;6.40;99.90;;;;;;4931265;28;19936;-73
2022/03/13 02:58:22;;;;;;;;;;;6.40;99.90;;;;;;4935149;28;20434;-73
2022/03/13 03:00:49;;;;;;;;;;;6.40;99.90;;;;;;4948254;28;19979;-73
2022/03/13 03:03:15;;;;;;;;;;;6.40;99.90;;;;;;4919544;28;20051;-73
2022/03/13 03:05:41;;;;;;;;;;;6.40;99.90;;;;;;4950472;28;20031;-73
2022/03/13 03:08:07;;;;;;;;;;;6.40;99.90;;;;;;4947993;28;20656;-73
2022/03/13 03:10:34;;;;;;;;;;;6.20;99.90;;;;;;4958058;28;19928;-73
2022/03/13 03:13:00;;;;;;;;;;;6.10;99.90;;;;;;4958891;28;19935;-73
2022/03/13 03:15:26;;;;;;;;;;;6.10;99.90;;;;;;4934994;28;20532;-73
2022/03/13 03:17:52;;;;;;;;;;;6.10;99.90;;;;;;4947504;28;20007;-73
2022/03/13 03:20:18;;;;;;;;;;;6.10;99.90;;;;;;4931929;28;19928;-73
2022/03/13 03:22:44;;;;;;;;;;;6.10;99.90;;;;;;4947233;28;19976;-73
2022/03/13 03:25:09;;;;;;;;;;;6.20;99.90;;;;;;4947506;28;19929;-73
2022/03/13 03:27:35;;;;;;;;;;;6.10;99.90;;;;;;4952110;28;20687;-73
2022/03/13 03:30:02;;;;;;;;;;;6.00;99.90;;;;;;4933007;28;19928;-73
2022/03/13 03:32:28;;;;;;;;;;;6.00;99.90;;;;;;4926386;28;19956;-73
2022/03/13 03:34:53;;;;;;;;;;;6.10;99.90;;;;;;4950532;28;20112;-73
2022/03/13 03:37:19;;;;;;;;;;;6.10;99.90;;;;;;4947490;28;19979;-73
2022/03/13 03:39:45;;;;;;;;;;;6.00;99.90;;;;;;4949668;28;19951;-73
2022/03/13 03:42:10;;;;;;;;;;;6.10;99.90;;;;;;4931963;28;20541;-73
2022/03/13 03:44:36;;;;;;;;;;;6.10;99.90;;;;;;4931263;28;19933;-73
2022/03/13 03:47:02;;;;;;;;;;;6.20;99.90;;;;;;4930202;28;20670;-73
2022/03/13 03:49:27;;;;;;;;;;;6.30;99.90;;;;;;4946614;28;20366;-73
2022/03/13 03:51:53;;;;;;;;;;;6.30;99.90;;;;;;4952138;28;20169;-73
2022/03/13 03:54:20;;;;;;;;;;;6.20;99.90;;;;;;4917040;28;20653;-73
2022/03/13 03:56:45;;;;;;;;;;;6.20;99.90;;;;;;4949367;28;19928;-73
2022/03/13 03:59:11;;;;;;;;;;;6.10;99.90;;;;;;4954704;28;20711;-73
2022/03/13 04:01:38;;;;;;;;;;;6.20;99.90;;;;;;4930333;28;20413;-73
2022/03/13 04:04:05;;;;;;;;;;;6.10;99.90;;;;;;4952500;28;20301;-73
2022/03/13 04:06:33;;;;;;;;;;;6.20;99.90;;;;;;4933458;28;20717;-73
2022/03/13 04:08:59;;;;;;;;;;;6.10;99.90;;;;;;4931691;28;19933;-73
2022/03/13 04:11:25;;;;;;;;;;;6.00;99.90;;;;;;4944220;28;19924;-73
2022/03/13 04:13:51;;;;;;;;;;;6.00;99.90;;;;;;4950345;28;19955;-73
2022/03/13 04:16:16;;;;;;;;;;;5.90;99.90;;;;;;4959820;28;20083;-73
2022/03/13 04:18:42;;;;;;;;;;;5.90;99.90;;;;;;4925362;28;19928;-73
2022/03/13 04:21:07;;;;;;;;;;;5.80;99.90;;;;;;4952817;28;19929;-73
2022/03/13 04:23:34;;;;;;;;;;;5.70;99.90;;;;;;4941385;28;20740;-74
2022/03/13 04:26:00;;;;;;;;;;;5.60;99.90;;;;;;4920693;28;19929;-74
2022/03/13 04:28:26;;;;;;;;;;;5.70;99.90;;;;;;4952594;28;19971;-74
2022/03/13 04:30:53;;;;;;;;;;;5.70;99.90;;;;;;4931931;28;19978;-74
2022/03/13 04:33:21;;;;;;;;;;;5.70;99.90;;;;;;4954653;28;20683;-74
2022/03/13 04:35:47;;;;;;;;;;;5.70;99.90;;;;;;4950128;28;20201;-74
2022/03/13 04:38:12;;;;;;;;;;;5.70;99.90;;;;;;4936758;28;20232;-74
2022/03/13 04:40:38;;;;;;;;;;;5.60;99.90;;;;;;4933751;28;20027;-74
2022/03/13 04:43:04;;;;;;;;;;;5.50;99.90;;;;;;4941779;28;19929;-74
2022/03/13 04:45:30;;;;;;;;;;;5.50;99.90;;;;;;4943002;28;19939;-74
2022/03/13 04:47:56;;;;;;;;;;;5.40;99.90;;;;;;4941336;28;19932;-74
2022/03/13 04:50:21;;;;;;;;;;;5.40;99.90;;;;;;4957645;28;20016;-74
2022/03/13 04:52:47;;;;;;;;;;;5.30;99.90;;;;;;4952769;28;19940;-74
2022/03/13 04:55:13;;;;;;;;;;;5.30;99.90;;;;;;4932492;28;20389;-74
2022/03/13 04:57:39;;;;;;;;;;;5.20;99.90;;;;;;4935627;28;19933;-74
2022/03/13 05:00:05;;;;;;;;;;;5.20;99.90;;;;;;4916983;28;20000;-74
2022/03/13 05:02:31;;;;;;;;;;;5.20;99.90;;;;;;4954777;28;19935;-74
2022/03/13 05:04:59;;;;;;;;;;;5.10;99.90;;;;;;4958555;28;19929;-74
2022/03/13 05:07:25;;;;;;;;;;;5.00;99.90;;;;;;4945223;28;19933;-74
2022/03/13 05:09:51;;;;;;;;;;;5.10;99.90;;;;;;4959144;28;19939;-74
2022/03/13 05:12:18;;;;;;;;;;;5.00;99.90;;;;;;4935289;28;20361;-74
2022/03/13 05:14:44;;;;;;;;;;;4.90;99.90;;;;;;4934949;28;20350;-74
2022/03/13 05:17:10;;;;;;;;;;;5.00;99.90;;;;;;4950860;28;19935;-74
2022/03/13 05:19:35;;;;;;;;;;;5.00;99.90;;;;;;4957345;28;19933;-74
2022/03/13 05:22:01;;;;;;;;;;;5.00;99.90;;;;;;4938927;28;19928;-74
2022/03/13 05:24:27;;;;;;;;;;;4.90;99.90;;;;;;4941735;28;20449;-74
2022/03/13 05:26:53;;;;;;;;;;;5.00;99.90;;;;;;4949807;28;19929;-74
2022/03/13 05:29:18;;;;;;;;;;;5.00;99.90;;;;;;4943604;28;19928;-74
2022/03/13 05:31:44;;;;;;;;;;;4.90;99.90;;;;;;4944817;28;20209;-74
2022/03/13 05:34:10;;;;;;;;;;;5.00;99.90;;;;;;4942507;28;20347;-74
2022/03/13 05:36:35;;;;;;;;;;;4.90;99.90;;;;;;4936064;28;20799;-74
2022/03/13 05:39:01;;;;;;;;;;;4.90;99.90;;;;;;4938160;28;20342;-74
2022/03/13 05:41:28;;;;;;;;;;;4.90;99.90;;;;;;4954572;28;20433;-74
2022/03/13 05:43:54;;;;;;;;;;;4.90;99.90;;;;;;4941725;28;19933;-74
2022/03/13 05:46:19;;;;;;;;;;;4.90;99.90;;;;;;4961547;28;20430;-74
2022/03/13 05:48:45;;;;;;;;;;;4.90;99.90;;;;;;4942899;28;19930;-74
2022/03/13 05:51:11;;;;;;;;;;;4.90;99.90;;;;;;4943878;28;20441;-74
2022/03/13 05:53:36;;;;;;;;;;;4.90;99.90;;;;;;4955453;28;20036;-74
2022/03/13 05:56:02;;;;;;;;;;;4.80;99.90;;;;;;4958641;28;20274;-74
2022/03/13 05:58:28;;;;;;;;;;;4.90;99.90;;;;;;4939285;28;19929;-74
2022/03/13 06:01:08;;;;;;;;;;;4.90;99.90;;;;;;4956247;28;20293;-74
2022/03/13 06:03:34;;;;;;;;;;;5.00;99.90;;;;;;4936729;28;19940;-74
2022/03/13 06:06:03;;;;;;;;;;;5.10;99.90;;;;;;4953263;28;19933;-74
2022/03/13 06:08:29;;;;;;;;;;;5.10;99.90;;;;;;4938923;28;20374;-74
2022/03/13 06:10:55;;;;;;;;;;;5.10;99.90;;;;;;4937573;28;19990;-74
2022/03/13 06:13:22;;;;;;;;;;;5.20;99.90;;;;;;4935416;28;20040;-74
2022/03/13 06:15:49;;;;;;;;;;;5.20;99.90;;;;;;4964103;28;19929;-74
2022/03/13 06:18:14;;;;;;;;;;;5.30;99.90;;;;;;4919061;28;20551;-74
2022/03/13 06:20:40;;;;;;;;;;;5.30;99.90;;;;;;4942113;28;19935;-74
2022/03/13 06:23:06;;;;;;;;;;;5.50;99.90;;;;;;4942212;28;20416;-74
2022/03/13 06:25:31;;;;;;;;;;;5.60;99.90;;;;;;4957634;28;20527;-74
2022/03/13 06:27:57;;;;;;;;;;;5.70;99.90;;;;;;4938424;28;19925;-74
2022/03/13 06:30:23;;;;;;;;;;;5.80;99.90;;;;;;4954315;28;19933;-74
2022/03/13 06:32:50;;;;;;;;;;;5.90;99.90;;;;;;4935150;28;19936;-74
2022/03/13 06:35:18;;;;;;;;;;;6.10;99.90;;;;;;4933434;28;20590;-74
2022/03/13 06:37:43;;;;;;;;;;;6.20;99.90;;;;;;4959194;28;20059;-74
2022/03/13 06:40:10;;;;;;;;;;;6.30;99.90;;;;;;4949213;28;20392;-74
2022/03/13 06:42:37;;;;;;;;;;;6.30;99.90;;;;;;4958096;28;19929;-74
2022/03/13 06:45:03;;;;;;;;;;;6.40;99.90;;;;;;4933113;28;19974;-74
2022/03/13 06:47:28;;;;;;;;;;;6.50;99.90;;;;;;4935781;28;19956;-74
2022/03/13 06:49:54;;;;;;;;;;;6.60;99.90;;;;;;4952469;28;19960;-73
2022/03/13 06:52:20;;;;;;;;;;;6.70;99.90;;;;;;4953287;28;19939;-74
2022/03/13 06:54:52;;;;;;;;;;;6.60;99.90;;;;;;4939427;28;19928;-75
2022/03/13 06:57:18;;;;;;;;;;;6.80;99.90;;;;;;4919322;28;19936;-75
2022/03/13 06:59:44;;;;;;;;;;;6.80;99.90;;;;;;4955725;28;19939;-74
2022/03/13 07:02:11;;;;;;;;;;;6.90;99.90;;;;;;4936493;28;19929;-75
2022/03/13 07:04:37;;;;;;;;;;;6.90;99.90;;;;;;4954707;28;20281;-74
2022/03/13 07:07:03;;;;;;;;;;;6.90;99.90;;;;;;4957903;28;19929;-73
2022/03/13 07:09:28;;;;;;;;;;;6.90;99.90;;;;;;4953830;28;20594;-75
2022/03/13 07:11:54;;;;;;;;;;;6.80;99.90;;;;;;4956303;28;20496;-75
2022/03/13 07:14:21;;;;;;;;;;;6.70;99.90;;;;;;4951536;28;19968;-75
2022/03/13 07:16:47;;;;;;;;;;;6.80;99.90;;;;;;4953571;28;19929;-74
2022/03/13 07:19:13;;;;;;;;;;;6.80;99.90;;;;;;4956831;28;20088;-75
2022/03/13 07:21:39;;;;;;;;;;;6.80;99.90;;;;;;4940339;28;20496;-74
2022/03/13 07:24:05;;;;;;;;;;;7.00;99.90;;;;;;4939496;28;20338;-75
2022/03/13 07:26:30;;;;;;;;;;;7.10;99.90;;;;;;4956522;28;19937;-74
2022/03/13 07:28:56;;;;;;;;;;;7.30;99.90;;;;;;4941223;28;20441;-74
2022/03/13 07:31:22;;;;;;;;;;;7.20;99.90;;;;;;4959075;28;19935;-74
2022/03/13 07:33:47;;;;;;;;;;;7.20;99.90;;;;;;4941927;28;19929;-74
2022/03/13 07:36:13;;;;;;;;;;;7.20;99.90;;;;;;4957203;28;20397;-74
2022/03/13 07:38:39;;;;;;;;;;;7.30;99.90;;;;;;4957304;28;19937;-74
2022/03/13 07:41:05;;;;;;;;;;;7.60;99.90;;;;;;4950724;28;20018;-74
2022/03/13 07:43:33;;;;;;;;;;;7.70;99.90;;;;;;4958405;28;19936;-75
2022/03/13 07:45:58;;;;;;;;;;;7.70;99.90;;;;;;4946931;28;20456;-74
2022/03/13 07:48:24;;;;;;;;;;;7.70;99.90;;;;;;4967433;28;19951;-74
2022/03/13 07:50:50;;;;;;;;;;;8.00;99.90;;;;;;4939499;28;20095;-74
2022/03/13 07:53:15;;;;;;;;;;;8.20;99.90;;;;;;4960573;28;20689;-74
2022/03/13 07:55:42;;;;;;;;;;;8.40;99.90;;;;;;4934510;28;19935;-75
2022/03/13 07:58:07;;;;;;;;;;;8.60;99.90;;;;;;4936936;28;19928;-74
2022/03/13 08:00:33;;;;;;;;;;;8.60;99.90;;;;;;4941466;28;20368;-75
2022/03/13 08:02:58;;;;;;;;;;;9.00;99.90;;;;;;4938959;28;20596;-74
2022/03/13 08:05:24;;;;;;;;;;;8.60;99.90;;;;;;4963521;28;20790;-75
2022/03/13 08:07:52;;;;;;;;;;;8.80;99.90;;;;;;4963592;28;20507;-75
2022/03/13 08:10:20;;;;;;;;;;;9.10;99.90;;;;;;4951469;28;19933;-75
2022/03/13 08:12:47;;;;;;;;;;;9.20;99.90;;;;;;4966869;28;20010;-74
2022/03/13 08:15:12;;;;;;;;;;;9.50;99.90;;;;;;4930101;28;19928;-74
2022/03/13 08:17:38;;;;;;;;;;;9.60;99.90;;;;;;4955357;28;20145;-75
2022/03/13 08:20:04;;;;;;;;;;;9.50;99.90;;;;;;4942138;28;20397;-74
2022/03/13 08:22:30;;;;;;;;;;;9.60;99.90;;;;;;4950853;28;19929;-74
2022/03/13 08:24:56;;;;;;;;;;;9.70;99.90;;;;;;4952480;28;19929;-75
2022/03/13 08:27:22;;;;;;;;;;;9.60;99.90;;;;;;4928852;28;20417;-74
2022/03/13 08:29:47;;;;;;;;;;;9.70;99.90;;;;;;4937109;28;20437;-75
2022/03/13 08:32:13;;;;;;;;;;;9.70;99.90;;;;;;4937582;28;20075;-74
2022/03/13 08:34:40;;;;;;;;;;;9.80;99.90;;;;;;4947510;28;19932;-74
2022/03/13 08:37:05;;;;;;;;;;;10.10;99.90;;;;;;4960218;28;19929;-74
2022/03/13 08:39:32;;;;;;;;;;;10.20;99.90;;;;;;4936227;28;19933;-74
2022/03/13 08:41:57;;;;;;;;;;;10.60;98.60;;;;;;4935623;28;19972;-74
2022/03/13 08:44:23;;;;;;;;;;;10.30;94.70;;;;;;4954482;28;20240;-74
2022/03/13 08:46:49;;;;;;;;;;;10.70;95.60;;;;;;4961116;28;19932;-75
2022/03/13 08:49:15;;;;;;;;;;;10.60;91.00;;;;;;4934138;28;19982;-75
2022/03/13 08:51:41;;;;;;;;;;;11.00;89.10;;;;;;4937699;28;20370;-75
2022/03/13 08:54:07;;;;;;;;;;;10.90;88.40;;;;;;4956348;28;20020;-75
2022/03/13 08:56:33;;;;;;;;;;;10.70;79.10;;;;;;4935288;28;19929;-74
2022/03/13 08:58:59;;;;;;;;;;;11.00;81.90;;;;;;4935152;28;20304;-75
2022/03/13 09:01:25;;;;;;;;;;;11.20;89.20;;;;;;4939296;28;19929;-75
2022/03/13 09:03:51;;;;;;;;;;;11.30;83.30;;;;;;4924502;28;19950;-75
2022/03/13 09:06:17;;;;;;;;;;;11.80;79.10;;;;;;4936952;28;20164;-75
2022/03/13 09:08:42;;;;;;;;;;;12.00;79.00;;;;;;4939750;28;19936;-74
2022/03/13 09:11:09;;;;;;;;;;;11.50;72.70;;;;;;4956824;28;20044;-74
2022/03/13 09:13:36;;;;;;;;;;;11.90;74.80;;;;;;4948167;28;20262;-75
2022/03/13 09:16:02;;;;;;;;;;;11.90;69.20;;;;;;4927734;28;20061;-75
2022/03/13 09:18:30;;;;;;;;;;;12.10;75.40;;;;;;4940209;28;20389;-75
2022/03/13 09:20:56;;;;;;;;;;;12.00;69.00;;;;;;4939730;28;20027;-74
2022/03/13 09:23:22;;;;;;;;;;;12.30;71.00;;;;;;4924679;28;20127;-75
2022/03/13 09:25:48;;;;;;;;;;;12.60;67.30;;;;;;4944353;28;19964;-74
2022/03/13 09:28:14;;;;;;;;;;;12.90;69.20;;;;;;4944682;28;19979;-75
2022/03/13 09:30:39;;;;;;;;;;;13.10;65.70;;;;;;4943282;28;19972;-74
2022/03/13 09:33:05;;;;;;;;;;;13.20;67.50;;;;;;4951653;28;19937;-75
2022/03/13 09:35:31;;;;;;;;;;;13.30;65.90;;;;;;4940216;28;19936;-74
2022/03/13 09:37:57;;;;;;;;;;;13.20;66.20;;;;;;4963951;28;20744;-74
2022/03/13 09:40:22;;;;;;;;;;;13.40;65.40;;;;;;4944628;28;19941;-74
2022/03/13 09:42:48;;;;;;;;;;;13.20;65.40;;;;;;4960320;28;20006;-74
2022/03/13 09:45:14;;;;;;;;;;;13.40;65.00;;;;;;4963933;28;19944;-74
2022/03/13 09:47:40;;;;;;;;;;;13.40;64.10;;;;;;4934205;28;20192;-74
2022/03/13 09:50:07;;;;;;;;;;;13.40;65.40;;;;;;4948196;28;20391;-75
2022/03/13 09:52:33;;;;;;;;;;;13.40;62.30;;;;;;4946362;28;19929;-74
2022/03/13 09:55:00;;;;;;;;;;;13.50;63.30;;;;;;4965252;28;19972;-74
2022/03/13 09:57:25;;;;;;;;;;;13.80;62.80;;;;;;4958003;28;19931;-74
2022/03/13 09:59:52;;;;;;;;;;;13.30;60.90;;;;;;4958750;28;19964;-75
2022/03/13 10:02:17;;;;;;;;;;;13.90;62.90;;;;;;4967280;28;20553;-74
2022/03/13 10:04:43;;;;;;;;;;;14.20;60.90;;;;;;4968373;28;20776;-74
2022/03/13 10:07:10;;;;;;;;;;;13.30;59.70;;;;;;4944379;28;19932;-74
2022/03/13 10:09:37;;;;;;;;;;;13.20;61.00;;;;;;4942453;28;20643;-74
2022/03/13 10:12:13;;;;;;;;;;;13.30;61.80;;;;;;4926131;28;19982;-74
2022/03/13 10:14:57;;;;;;;;;;;13.60;61.50;;;;;;4958768;28;19929;-74
2022/03/13 10:17:26;;;;;;;;;;;13.30;61.10;;;;;;4948139;28;19929;-74
2022/03/13 10:19:52;;;;;;;;;;;12.90;61.20;;;;;;4946609;28;19964;-73
2022/03/13 10:22:18;;;;;;;;;;;13.00;61.60;;;;;;4918372;28;20337;-74
2022/03/13 10:24:45;;;;;;;;;;;12.70;61.80;;;;;;4949444;28;20007;-74
2022/03/13 10:27:15;;;;;;;;;;;12.90;62.70;;;;;;4949372;28;21877;-74
2022/03/13 10:29:42;;;;;;;;;;;12.70;58.70;;;;;;4949275;28;19925;-73
2022/03/13 10:32:09;;;;;;;;;;;12.80;62.10;;;;;;4964714;28;20001;-74
2022/03/13 10:34:35;;;;;;;;;;;12.80;59.60;;;;;;4954916;28;19929;-74
2022/03/13 10:37:04;;;;;;;;;;;13.20;61.50;;;;;;4928017;28;20296;-74
2022/03/13 10:39:30;;;;;;;;;;;13.60;61.00;;;;;;4952950;28;19933;-74
2022/03/13 10:42:05;;;;;;;;;;;13.70;59.90;;;;;;4914758;28;20903;-73
2022/03/13 10:44:34;;;;;;;;;;;13.60;59.70;;;;;;4955447;28;19928;-74
2022/03/13 10:47:08;;;;;;;;;;;13.70;58.80;;;;;;4933890;28;19987;-73
2022/03/13 10:49:41;;;;;;;;;;;14.10;60.20;;;;;;4956939;28;20444;-73
2022/03/13 10:52:29;;;;;;;;;;;14.30;61.00;;;;;;4949773;28;19944;-74
2022/03/13 10:54:55;;;;;;;;;;;14.30;60.50;;;;;;4932810;28;19929;-73
2022/03/13 10:57:21;;;;;;;;;;;14.40;60.10;;;;;;4947951;28;19929;-73
2022/03/13 11:00:06;;;;;;;;;;;14.30;60.00;;;;;;4950725;28;20040;-73
2022/03/13 11:02:31;;;;;;;;;;;14.50;59.50;;;;;;4945652;28;20689;-73
2022/03/13 11:04:57;;;;;;;;;;;14.70;60.30;;;;;;4947415;28;19939;-74
2022/03/13 11:07:24;;;;;;;;;;;14.80;59.30;;;;;;4942419;28;19933;-73
2022/03/13 11:09:49;;;;;;;;;;;14.50;59.60;;;;;;4949379;28;19933;-74
2022/03/13 11:12:20;;;;;;;;;;;14.80;60.50;;;;;;4934551;28;20388;-74
2022/03/13 11:14:48;;;;;;;;;;;14.90;59.00;;;;;;4949847;28;20281;-74
2022/03/13 11:17:14;;;;;;;;;;;14.90;59.80;;;;;;4902366;28;20337;-74
2022/03/13 11:19:40;;;;;;;;;;;15.20;58.80;;;;;;4915883;28;20389;-75
2022/03/13 11:22:08;;;;;;;;;;;15.30;57.50;;;;;;4945245;28;19929;-74
2022/03/13 11:24:36;;;;;;;;;;;15.40;57.30;;;;;;4942584;28;20782;-74
2022/03/13 11:27:05;;;;;;;;;;;14.80;54.30;;;;;;4933583;28;20272;-74
2022/03/13 11:29:44;;;;;;;;;;;15.10;58.20;;;;;;4927449;28;20441;-74
2022/03/13 11:32:29;;;;;;;;;;;15.10;57.50;;;;;;4913815;28;19940;-74
2022/03/13 11:35:13;;;;;;;;;;;15.50;56.70;;;;;;4927015;28;19929;-74
2022/03/13 11:37:40;;;;;;;;;;;15.40;56.10;;;;;;4950216;28;21708;-74
2022/03/13 11:40:07;;;;;;;;;;;15.30;55.50;;;;;;4933058;28;19935;-74
2022/03/13 11:42:48;;;;;;;;;;;15.60;55.70;;;;;;4934967;28;19929;-74
2022/03/13 11:45:35;;;;;;;;;;;16.00;54.50;;;;;;4948398;28;20277;-74
2022/03/13 11:48:04;;;;;;;;;;;15.90;54.40;;;;;;4934373;28;19940;-74
2022/03/13 11:50:51;;;;;;;;;;;16.30;54.80;;;;;;4948667;28;20043;-74
2022/03/13 11:53:24;;;;;;;;;;;16.50;53.70;;;;;;4928460;28;20658;-74
2022/03/13 11:55:59;;;;;;;;;;;16.50;53.50;;;;;;4932440;28;19933;-75
2022/03/13 11:58:45;;;;;;;;;;;16.00;51.20;;;;;;4953473;28;19936;-74
2022/03/13 12:01:32;;;;;;;;;;;16.10;51.00;;;;;;4952517;28;20242;-74
2022/03/13 12:04:01;;;;;;;;;;;16.60;53.20;;;;;;4954377;28;19929;-74
2022/03/13 12:06:40;;;;;;;;;;;16.90;53.50;;;;;;4933890;28;19929;-74
2022/03/13 12:09:11;;;;;;;;;;;16.60;50.70;;;;;;4951813;28;20643;-74
2022/03/13 12:11:40;;;;;;;;;;;16.50;50.80;;;;;;4936702;28;19933;-74
2022/03/13 12:14:10;;;;;;;;;;;16.80;51.20;;;;;;4955552;28;20469;-74
2022/03/13 12:16:37;;;;;;;;;;;16.70;49.80;;;;;;4954586;28;20829;-75
2022/03/13 12:19:03;;;;;;;;;;;16.20;49.80;;;;;;4933860;28;20353;-74
2022/03/13 12:21:29;;;;;;;;;;;16.90;52.90;;;;;;4933640;28;20726;-74
2022/03/13 12:23:58;;;;;;;;;;;17.00;49.90;;;;;;4935108;28;20297;-74
2022/03/13 12:26:28;;;;;;;;;;;16.30;51.50;;;;;;4935385;28;19932;-74
2022/03/13 12:28:55;;;;;;;;;;;16.10;52.00;;;;;;4949589;28;19924;-74
2022/03/13 12:31:21;;;;;;;;;;;16.60;52.10;;;;;;4940148;28;20773;-74
2022/03/13 12:33:51;;;;;;;;;;;16.80;52.50;;;;;;4940754;28;19929;-74
2022/03/13 12:36:18;;;;;;;;;;;17.20;53.60;;;;;;4959581;28;20003;-74
2022/03/13 12:38:44;;;;;;;;;;;16.80;49.20;;;;;;4950493;28;19972;-74
2022/03/13 12:41:11;;;;;;;;;;;17.20;53.20;;;;;;4936486;28;19952;-74
2022/03/13 12:43:53;;;;;;;;;;;17.00;53.60;;;;;;4934337;28;20003;-74
2022/03/13 12:46:21;;;;;;;;;;;16.70;52.10;;;;;;4950017;28;20402;-74
2022/03/13 12:48:54;;;;;;;;;;;16.40;52.10;;;;;;4951161;28;19929;-74
2022/03/13 12:51:38;;;;;;;;;;;16.80;55.20;;;;;;4954842;28;19934;-74
2022/03/13 12:54:03;;;;;;;;;;;17.40;55.40;;;;;;4936208;28;19935;-74
2022/03/13 12:56:30;;;;;;;;;;;17.70;54.40;;;;;;4945434;28;19933;-74
2022/03/13 12:58:57;;;;;;;;;;;17.00;54.00;;;;;;4956342;28;20161;-74
2022/03/13 13:01:23;;;;;;;;;;;17.70;56.20;;;;;;4944303;28;19974;-74
2022/03/13 13:03:50;;;;;;;;;;;17.10;53.40;;;;;;4959010;28;20453;-74
2022/03/13 13:06:29;;;;;;;;;;;17.00;52.50;;;;;;4956277;28;20058;-74
2022/03/13 13:08:55;;;;;;;;;;;16.90;55.80;;;;;;4939514;28;20303;-74
2022/03/13 13:11:28;;;;;;;;;;;17.60;54.30;;;;;;4952795;28;20171;-73
2022/03/13 13:13:58;;;;;;;;;;;17.10;54.40;;;;;;4952353;28;20428;-73
2022/03/13 13:16:26;;;;;;;;;;;17.00;54.90;;;;;;4940241;28;20062;-73
2022/03/13 13:18:52;;;;;;;;;;;17.50;56.10;;;;;;4920374;28;20679;-75
2022/03/13 13:21:17;;;;;;;;;;;17.20;56.20;;;;;;4948412;28;19929;-75
2022/03/13 13:23:43;;;;;;;;;;;17.70;56.70;;;;;;4928937;28;19932;-74
2022/03/13 13:26:09;;;;;;;;;;;17.20;53.10;;;;;;4964748;28;19933;-74
2022/03/13 13:28:35;;;;;;;;;;;17.60;57.20;;;;;;4945891;28;20051;-74
2022/03/13 13:31:01;;;;;;;;;;;17.40;54.80;;;;;;4949264;28;19937;-74
2022/03/13 13:33:32;;;;;;;;;;;17.10;55.80;;;;;;4966813;28;20360;-74
2022/03/13 13:36:00;;;;;;;;;;;17.30;56.20;;;;;;4948269;28;19929;-74
2022/03/13 13:38:26;;;;;;;;;;;17.60;55.20;;;;;;4950018;28;20744;-74
2022/03/13 13:40:51;;;;;;;;;;;17.50;56.40;;;;;;4955306;28;20684;-74
2022/03/13 13:43:33;;;;;;;;;;;17.70;56.90;;;;;;4966053;28;20085;-74
2022/03/13 13:46:03;;;;;;;;;;;17.90;57.70;;;;;;4937577;28;20458;-74
2022/03/13 13:48:30;;;;;;;;;;;17.50;56.10;;;;;;4944387;28;20516;-74
2022/03/13 13:51:32;;;;;;;;;;;17.50;57.80;;;;;;4965611;28;20317;-74
2022/03/13 13:54:05;;;;;;;;;;;17.50;56.40;;;;;;4862352;28;20337;-74
2022/03/13 13:56:35;;;;;;;;;;;17.10;57.30;;;;;;4940751;28;20675;-74
2022/03/13 13:59:15;;;;;;;;;;;17.40;57.70;;;;;;4962439;28;19932;-74
2022/03/13 14:01:42;;;;;;;;;;;17.70;55.60;;;;;;4967229;28;19975;-74
2022/03/13 14:04:08;;;;;;;;;;;17.50;57.60;;;;;;4963395;28;19979;-74
2022/03/13 14:06:37;;;;;;;;;;;18.00;58.50;;;;;;4945416;28;19928;-74
2022/03/13 14:09:04;;;;;;;;;;;17.60;56.30;;;;;;4954548;28;20352;-74
2022/03/13 14:11:29;;;;;;;;;;;17.80;57.90;;;;;;4947795;28;20495;-74
2022/03/13 14:13:55;;;;;;;;;;;17.60;57.60;;;;;;4990246;28;19929;-73
2022/03/13 14:16:21;;;;;;;;;;;17.80;56.10;;;;;;4989140;28;20094;-73
2022/03/13 14:18:47;;;;;;;;;;;17.70;57.90;;;;;;4963395;28;20307;-74
2022/03/13 14:21:14;;;;;;;;;;;18.20;57.60;;;;;;4987733;28;19933;-74
2022/03/13 14:23:39;;;;;;;;;;;17.80;55.50;;;;;;4987759;28;20048;-74
2022/03/13 14:26:05;;;;;;;;;;;18.00;57.90;;;;;;4998861;28;19929;-73